M/V Raymond M. — WDC4224 — position and weather

sailwx.info

Track history (hours):
 
Tides and Currents Weather Stations Pressure Air Temp Water Temp Dewpoint Dewpoint Depression Visibility Wind Speed Wind Dir Waves Ship Positions

M/V Raymond M.

Owner: RM Leasing, Clute, TX. More information available from US FCC via Universal Licensing System and Coast Guard Vessel Documentation Center.

Last reported at 2016-Jul-25 03:34 UTC. Time now 2016-Aug-30 09:11 UTC.
Position N 29°38' W 092°16'.
Warning: this ship's position is 36 days out of date.

; draft 2.2 m.

MMSI: 367021170.

Date/timePositionNaut miles runAvg speedWind from/ knotsBaromVisibWave heightAir tempDewpointWater temp
2016-Jul-25 03:34N 29°38' W 092°16'9 9.4
2016-Jul-25 02:34N 29°47' W 092°11'0 0.1
2016-Jul-25 01:33N 29°47' W 092°11'5 4.7
2016-Jul-25 00:33N 29°43' W 092°15'1010.5
2016-Jul-24 23:33N 29°33' W 092°18'0 0.0
2016-Jul-24 11:04N 29°33' W 092°18'611.7
2016-Jul-24 10:34N 29°39' W 092°16'9 9.0
2016-Jul-24 09:34N 29°47' W 092°11'0 0.4
2016-Jul-24 08:34N 29°47' W 092°11'4 4.4
2016-Jul-24 07:33N 29°44' W 092°15'1010.1
2016-Jul-24 06:34N 29°34' W 092°18'1 0.0
2016-Jul-23 12:05N 29°34' W 092°18'0 0.4
2016-Jul-23 11:27N 29°34' W 092°18'8 9.3
2016-Jul-23 10:34N 29°42' W 092°15'6 6.2
2016-Jul-23 09:34N 29°47' W 092°11'0 0.0
2016-Jul-23 08:33N 29°47' W 092°11'0 0.2
2016-Jul-23 07:17N 29°47' W 092°11'5 6.2
2016-Jul-23 06:31N 29°43' W 092°15'5 0.2
2016-Jul-22 05:34N 29°47' W 092°11'1 0.6
2016-Jul-22 04:33N 29°47' W 092°11'4 3.7
2016-Jul-22 03:33N 29°44' W 092°14'1211.2
2016-Jul-22 02:31N 29°33' W 092°18'1 0.1
2016-Jul-21 08:03N 29°34' W 092°18'612.2
2016-Jul-21 07:33N 29°40' W 092°15'8 1.3
2016-Jul-21 01:34N 29°47' W 092°11'1010.1
2016-Jul-21 00:33N 29°38' W 092°16'3 0.2
2016-Jul-20 06:32N 29°35' W 092°18'1111.0
2016-Jul-20 05:33N 29°45' W 092°13'2 2.2
2016-Jul-20 04:28N 29°47' W 092°11'0 0.0
2016-Jul-20 03:34N 29°47' W 092°11'0 0.2
2016-Jul-20 02:34N 29°47' W 092°11'0 0.0
2016-Jul-20 01:34N 29°47' W 092°11'0 0.0
2016-Jul-20 00:34N 29°47' W 092°11'0 0.0
2016-Jul-19 23:34N 29°47' W 092°11'0 0.0
2016-Jul-19 22:34N 29°47' W 092°11'0 0.0
2016-Jul-19 21:34N 29°47' W 092°11'0 0.0
2016-Jul-19 20:34N 29°47' W 092°11'0 0.0
2016-Jul-19 19:34N 29°47' W 092°11'0 0.0
2016-Jul-19 18:34N 29°47' W 092°11'8 8.2
2016-Jul-19 17:33N 29°40' W 092°16'8 0.6
2016-Jul-19 04:33N 29°47' W 092°11'0 0.0
2016-Jul-19 03:33N 29°47' W 092°11'0 0.0
2016-Jul-19 02:33N 29°47' W 092°11'0 0.0
2016-Jul-19 01:33N 29°47' W 092°11'0 0.0
2016-Jul-19 00:31N 29°47' W 092°11'8 8.3
2016-Jul-18 23:33N 29°40' W 092°15'5 0.3
2016-Jul-18 04:06N 29°35' W 092°18'510.2
2016-Jul-18 03:34N 29°40' W 092°15'7 7.5
2016-Jul-18 02:33N 29°47' W 092°11'0 0.1
2016-Jul-18 01:34N 29°47' W 092°11'0 0.0
2016-Jul-18 00:33N 29°47' W 092°11'0 0.1
2016-Jul-17 23:33N 29°47' W 092°11'0 0.0
2016-Jul-17 22:33N 29°47' W 092°11'0 0.0
2016-Jul-17 21:33N 29°47' W 092°11'0 0.0
2016-Jul-17 20:33N 29°47' W 092°11'5 5.2
2016-Jul-17 19:34N 29°43' W 092°15'10 9.8
2016-Jul-17 18:33N 29°33' W 092°18'  
Track history (hours):
 
Tides and Currents Weather Stations Pressure Air Temp Water Temp Dewpoint Dewpoint Depression Visibility Wind Speed Wind Dir Waves Ship Positions

M/V Raymond M.

Owner: RM Leasing, Clute, TX. More information available from US FCC via Universal Licensing System and Coast Guard Vessel Documentation Center.

Last reported at 2016-Jul-25 03:34 UTC. Time now 2016-Aug-30 09:11 UTC.
Position N 29°38' W 092°16'.
Warning: this ship's position is 36 days out of date.

; draft 2.2 m.

MMSI: 367021170.

Date/timePositionNaut miles runAvg speedWind from/ knotsBaromVisibWave heightAir tempDewpointWater temp
2016-Jul-25 03:34N 29°38' W 092°16'9 9.4
2016-Jul-25 02:34N 29°47' W 092°11'0 0.1
2016-Jul-25 01:33N 29°47' W 092°11'5 4.7
2016-Jul-25 00:33N 29°43' W 092°15'1010.5
2016-Jul-24 23:33N 29°33' W 092°18'0 0.0
2016-Jul-24 11:04N 29°33' W 092°18'611.7
2016-Jul-24 10:34N 29°39' W 092°16'9 9.0
2016-Jul-24 09:34N 29°47' W 092°11'0 0.4
2016-Jul-24 08:34N 29°47' W 092°11'4 4.4
2016-Jul-24 07:33N 29°44' W 092°15'1010.1
2016-Jul-24 06:34N 29°34' W 092°18'1 0.0
2016-Jul-23 12:05N 29°34' W 092°18'0 0.4
2016-Jul-23 11:27N 29°34' W 092°18'8 9.3
2016-Jul-23 10:34N 29°42' W 092°15'6 6.2
2016-Jul-23 09:34N 29°47' W 092°11'0 0.0
2016-Jul-23 08:33N 29°47' W 092°11'0 0.2
2016-Jul-23 07:17N 29°47' W 092°11'5 6.2
2016-Jul-23 06:31N 29°43' W 092°15'5 0.2
2016-Jul-22 05:34N 29°47' W 092°11'1 0.6
2016-Jul-22 04:33N 29°47' W 092°11'4 3.7
2016-Jul-22 03:33N 29°44' W 092°14'1211.2
2016-Jul-22 02:31N 29°33' W 092°18'1 0.1
2016-Jul-21 08:03N 29°34' W 092°18'612.2
2016-Jul-21 07:33N 29°40' W 092°15'8 1.3
2016-Jul-21 01:34N 29°47' W 092°11'1010.1
2016-Jul-21 00:33N 29°38' W 092°16'3 0.2
2016-Jul-20 06:32N 29°35' W 092°18'1111.0
2016-Jul-20 05:33N 29°45' W 092°13'2 2.2
2016-Jul-20 04:28N 29°47' W 092°11'0 0.0
2016-Jul-20 03:34N 29°47' W 092°11'0 0.2
2016-Jul-20 02:34N 29°47' W 092°11'0 0.0
2016-Jul-20 01:34N 29°47' W 092°11'0 0.0
2016-Jul-20 00:34N 29°47' W 092°11'0 0.0
2016-Jul-19 23:34N 29°47' W 092°11'0 0.0
2016-Jul-19 22:34N 29°47' W 092°11'0 0.0
2016-Jul-19 21:34N 29°47' W 092°11'0 0.0
2016-Jul-19 20:34N 29°47' W 092°11'0 0.0
2016-Jul-19 19:34N 29°47' W 092°11'0 0.0
2016-Jul-19 18:34N 29°47' W 092°11'8 8.2
2016-Jul-19 17:33N 29°40' W 092°16'8 0.6
2016-Jul-19 04:33N 29°47' W 092°11'0 0.0
2016-Jul-19 03:33N 29°47' W 092°11'0 0.0
2016-Jul-19 02:33N 29°47' W 092°11'0 0.0
2016-Jul-19 01:33N 29°47' W 092°11'0 0.0
2016-Jul-19 00:31N 29°47' W 092°11'8 8.3
2016-Jul-18 23:33N 29°40' W 092°15'5 0.3
2016-Jul-18 04:06N 29°35' W 092°18'510.2
2016-Jul-18 03:34N 29°40' W 092°15'7 7.5
2016-Jul-18 02:33N 29°47' W 092°11'0 0.1
2016-Jul-18 01:34N 29°47' W 092°11'0 0.0
2016-Jul-18 00:33N 29°47' W 092°11'0 0.1
2016-Jul-17 23:33N 29°47' W 092°11'0 0.0
2016-Jul-17 22:33N 29°47' W 092°11'0 0.0
2016-Jul-17 21:33N 29°47' W 092°11'0 0.0
2016-Jul-17 20:33N 29°47' W 092°11'5 5.2
2016-Jul-17 19:34N 29°43' W 092°15'10 9.8
2016-Jul-17 18:33N 29°33' W 092°18'  

Dump ship's entire track history